sensor_id;sensor_type;location;lat;lon;timestamp;temperature;humidity
57753;DHT22;43583;53.132;6.574;2022-07-29T00:02:14;14.20;99.90
57753;DHT22;43583;53.132;6.574;2022-07-29T00:04:39;14.30;99.90
57753;DHT22;43583;53.132;6.574;2022-07-29T00:07:05;14.30;99.90
57753;DHT22;43583;53.132;6.574;2022-07-29T00:09:31;14.20;99.90
57753;DHT22;43583;53.132;6.574;2022-07-29T00:11:59;14.30;99.90
57753;DHT22;43583;53.132;6.574;2022-07-29T00:14:25;14.20;99.90
57753;DHT22;43583;53.132;6.574;2022-07-29T00:16:51;14.30;99.90
57753;DHT22;43583;53.132;6.574;2022-07-29T00:19:16;14.30;99.90
57753;DHT22;43583;53.132;6.574;2022-07-29T00:21:42;14.30;99.90
57753;DHT22;43583;53.132;6.574;2022-07-29T00:24:08;14.30;99.90
57753;DHT22;43583;53.132;6.574;2022-07-29T00:26:33;14.30;99.90
57753;DHT22;43583;53.132;6.574;2022-07-29T00:28:59;14.30;99.90
57753;DHT22;43583;53.132;6.574;2022-07-29T00:31:25;14.30;99.90
57753;DHT22;43583;53.132;6.574;2022-07-29T00:33:51;14.30;99.90
57753;DHT22;43583;53.132;6.574;2022-07-29T00:36:16;14.30;99.90
57753;DHT22;43583;53.132;6.574;2022-07-29T00:38:42;14.30;99.90
57753;DHT22;43583;53.132;6.574;2022-07-29T00:41:11;14.30;99.90
57753;DHT22;43583;53.132;6.574;2022-07-29T00:43:36;14.30;99.90
57753;DHT22;43583;53.132;6.574;2022-07-29T00:46:02;14.30;99.90
57753;DHT22;43583;53.132;6.574;2022-07-29T00:48:28;14.30;99.90
57753;DHT22;43583;53.132;6.574;2022-07-29T00:50:55;14.30;99.90
57753;DHT22;43583;53.132;6.574;2022-07-29T00:53:23;14.30;99.90
57753;DHT22;43583;53.132;6.574;2022-07-29T00:55:49;14.30;99.90
57753;DHT22;43583;53.132;6.574;2022-07-29T00:58:15;14.40;99.90
57753;DHT22;43583;53.132;6.574;2022-07-29T01:00:41;14.40;99.90
57753;DHT22;43583;53.132;6.574;2022-07-29T01:03:07;14.40;99.90
57753;DHT22;43583;53.132;6.574;2022-07-29T01:05:34;14.30;99.90
57753;DHT22;43583;53.132;6.574;2022-07-29T01:08:00;14.40;99.90
57753;DHT22;43583;53.132;6.574;2022-07-29T01:10:27;14.30;99.90
57753;DHT22;43583;53.132;6.574;2022-07-29T01:12:54;14.40;99.90
57753;DHT22;43583;53.132;6.574;2022-07-29T01:15:22;14.30;99.90
57753;DHT22;43583;53.132;6.574;2022-07-29T01:18:09;14.40;99.90
57753;DHT22;43583;53.132;6.574;2022-07-29T01:20:46;14.40;99.90
57753;DHT22;43583;53.132;6.574;2022-07-29T01:26:46;14.30;99.90
57753;DHT22;43583;53.132;6.574;2022-07-29T01:32:02;14.30;99.90
57753;DHT22;43583;53.132;6.574;2022-07-29T01:34:50;14.30;99.90
57753;DHT22;43583;53.132;6.574;2022-07-29T01:37:19;14.30;99.90
57753;DHT22;43583;53.132;6.574;2022-07-29T01:39:47;14.30;99.90
57753;DHT22;43583;53.132;6.574;2022-07-29T01:42:31;14.40;99.90
57753;DHT22;43583;53.132;6.574;2022-07-29T01:45:02;14.40;99.90
57753;DHT22;43583;53.132;6.574;2022-07-29T01:47:41;14.40;99.90
57753;DHT22;43583;53.132;6.574;2022-07-29T01:50:11;14.40;99.90
57753;DHT22;43583;53.132;6.574;2022-07-29T01:52:49;14.40;99.90
57753;DHT22;43583;53.132;6.574;2022-07-29T01:55:20;14.40;99.90
57753;DHT22;43583;53.132;6.574;2022-07-29T01:57:48;14.50;99.90
57753;DHT22;43583;53.132;6.574;2022-07-29T02:00:14;14.50;99.90
57753;DHT22;43583;53.132;6.574;2022-07-29T02:02:43;14.50;99.90
57753;DHT22;43583;53.132;6.574;2022-07-29T02:05:15;14.50;99.90
57753;DHT22;43583;53.132;6.574;2022-07-29T02:07:42;14.50;99.90
57753;DHT22;43583;53.132;6.574;2022-07-29T02:10:09;14.40;99.90
57753;DHT22;43583;53.132;6.574;2022-07-29T02:12:36;14.40;99.90
57753;DHT22;43583;53.132;6.574;2022-07-29T02:15:04;14.40;99.90
57753;DHT22;43583;53.132;6.574;2022-07-29T02:17:41;14.40;99.90
57753;DHT22;43583;53.132;6.574;2022-07-29T02:20:09;14.40;99.90
57753;DHT22;43583;53.132;6.574;2022-07-29T02:22:37;14.40;99.90
57753;DHT22;43583;53.132;6.574;2022-07-29T02:25:04;14.40;99.90
57753;DHT22;43583;53.132;6.574;2022-07-29T02:27:33;14.40;99.90
57753;DHT22;43583;53.132;6.574;2022-07-29T02:30:01;14.40;99.90
57753;DHT22;43583;53.132;6.574;2022-07-29T02:32:28;14.40;99.90
57753;DHT22;43583;53.132;6.574;2022-07-29T02:34:54;14.40;99.90
57753;DHT22;43583;53.132;6.574;2022-07-29T02:37:21;14.40;99.90
57753;DHT22;43583;53.132;6.574;2022-07-29T02:39:48;14.40;99.90
57753;DHT22;43583;53.132;6.574;2022-07-29T02:42:18;14.40;99.90
57753;DHT22;43583;53.132;6.574;2022-07-29T02:44:44;14.40;99.90
57753;DHT22;43583;53.132;6.574;2022-07-29T02:47:17;14.40;99.90
57753;DHT22;43583;53.132;6.574;2022-07-29T02:50:04;14.40;99.90
57753;DHT22;43583;53.132;6.574;2022-07-29T02:52:54;14.40;99.90
57753;DHT22;43583;53.132;6.574;2022-07-29T02:58:29;14.40;99.90
57753;DHT22;43583;53.132;6.574;2022-07-29T03:01:00;14.40;99.90
57753;DHT22;43583;53.132;6.574;2022-07-29T03:03:31;14.40;99.90
57753;DHT22;43583;53.132;6.574;2022-07-29T03:05:59;14.40;99.90
57753;DHT22;43583;53.132;6.574;2022-07-29T03:08:26;14.40;99.90
57753;DHT22;43583;53.132;6.574;2022-07-29T03:10:53;14.40;99.90
57753;DHT22;43583;53.132;6.574;2022-07-29T03:13:19;14.50;99.90
57753;DHT22;43583;53.132;6.574;2022-07-29T03:15:46;14.50;99.90
57753;DHT22;43583;53.132;6.574;2022-07-29T03:18:13;14.50;99.90
57753;DHT22;43583;53.132;6.574;2022-07-29T03:20:39;14.50;99.90
57753;DHT22;43583;53.132;6.574;2022-07-29T03:23:06;14.50;99.90
57753;DHT22;43583;53.132;6.574;2022-07-29T03:25:33;14.50;99.90
57753;DHT22;43583;53.132;6.574;2022-07-29T03:27:59;14.50;99.90
57753;DHT22;43583;53.132;6.574;2022-07-29T03:30:24;14.50;99.90
57753;DHT22;43583;53.132;6.574;2022-07-29T03:32:52;14.50;99.90
57753;DHT22;43583;53.132;6.574;2022-07-29T03:35:21;14.50;99.90
57753;DHT22;43583;53.132;6.574;2022-07-29T03:37:46;14.50;99.90
57753;DHT22;43583;53.132;6.574;2022-07-29T03:40:16;14.50;99.90
57753;DHT22;43583;53.132;6.574;2022-07-29T03:42:44;14.60;99.90
57753;DHT22;43583;53.132;6.574;2022-07-29T03:45:15;14.60;99.90
57753;DHT22;43583;53.132;6.574;2022-07-29T03:48:06;14.60;99.90
57753;DHT22;43583;53.132;6.574;2022-07-29T03:50:33;14.60;99.90
57753;DHT22;43583;53.132;6.574;2022-07-29T03:53:00;14.60;99.90
57753;DHT22;43583;53.132;6.574;2022-07-29T03:55:27;14.60;99.90
57753;DHT22;43583;53.132;6.574;2022-07-29T03:57:55;14.60;99.90
57753;DHT22;43583;53.132;6.574;2022-07-29T04:00:26;14.50;99.90
57753;DHT22;43583;53.132;6.574;2022-07-29T04:02:52;14.50;99.90
57753;DHT22;43583;53.132;6.574;2022-07-29T04:05:18;14.50;99.90
57753;DHT22;43583;53.132;6.574;2022-07-29T04:07:48;14.60;99.90
57753;DHT22;43583;53.132;6.574;2022-07-29T04:10:14;14.60;99.90
57753;DHT22;43583;53.132;6.574;2022-07-29T04:12:41;14.60;99.90
57753;DHT22;43583;53.132;6.574;2022-07-29T04:15:07;14.60;99.90
57753;DHT22;43583;53.132;6.574;2022-07-29T04:17:33;14.60;99.90
57753;DHT22;43583;53.132;6.574;2022-07-29T04:19:58;14.60;99.90
57753;DHT22;43583;53.132;6.574;2022-07-29T04:22:24;14.60;99.90
57753;DHT22;43583;53.132;6.574;2022-07-29T04:24:49;14.60;99.90
57753;DHT22;43583;53.132;6.574;2022-07-29T04:27:15;14.60;99.90
57753;DHT22;43583;53.132;6.574;2022-07-29T04:29:40;14.60;99.90
57753;DHT22;43583;53.132;6.574;2022-07-29T04:32:06;14.60;99.90
57753;DHT22;43583;53.132;6.574;2022-07-29T04:34:31;14.60;99.90
57753;DHT22;43583;53.132;6.574;2022-07-29T04:36:57;14.70;99.90
57753;DHT22;43583;53.132;6.574;2022-07-29T04:39:23;14.70;99.90
57753;DHT22;43583;53.132;6.574;2022-07-29T04:41:49;14.70;99.90
57753;DHT22;43583;53.132;6.574;2022-07-29T04:44:15;14.80;99.90
57753;DHT22;43583;53.132;6.574;2022-07-29T04:46:40;14.80;99.90
57753;DHT22;43583;53.132;6.574;2022-07-29T04:49:06;14.80;99.90
57753;DHT22;43583;53.132;6.574;2022-07-29T04:51:32;14.80;99.90
57753;DHT22;43583;53.132;6.574;2022-07-29T04:53:57;14.90;99.90
57753;DHT22;43583;53.132;6.574;2022-07-29T04:56:23;14.90;99.90
57753;DHT22;43583;53.132;6.574;2022-07-29T04:58:48;14.90;99.90
57753;DHT22;43583;53.132;6.574;2022-07-29T05:01:14;14.90;99.90
57753;DHT22;43583;53.132;6.574;2022-07-29T05:03:40;15.00;99.90
57753;DHT22;43583;53.132;6.574;2022-07-29T05:06:05;15.00;99.90
57753;DHT22;43583;53.132;6.574;2022-07-29T05:08:31;15.00;99.90
57753;DHT22;43583;53.132;6.574;2022-07-29T05:10:56;15.10;99.90
57753;DHT22;43583;53.132;6.574;2022-07-29T05:13:22;15.10;99.90
57753;DHT22;43583;53.132;6.574;2022-07-29T05:15:48;15.10;99.90
57753;DHT22;43583;53.132;6.574;2022-07-29T05:18:13;15.20;99.90
57753;DHT22;43583;53.132;6.574;2022-07-29T05:20:39;15.20;99.90
57753;DHT22;43583;53.132;6.574;2022-07-29T05:23:04;15.30;99.90
57753;DHT22;43583;53.132;6.574;2022-07-29T05:25:30;15.30;99.90
57753;DHT22;43583;53.132;6.574;2022-07-29T05:27:56;15.40;99.90
57753;DHT22;43583;53.132;6.574;2022-07-29T05:30:22;15.40;99.90
57753;DHT22;43583;53.132;6.574;2022-07-29T05:32:48;15.40;99.90
57753;DHT22;43583;53.132;6.574;2022-07-29T05:35:14;15.50;99.90
57753;DHT22;43583;53.132;6.574;2022-07-29T05:37:41;15.50;99.90
57753;DHT22;43583;53.132;6.574;2022-07-29T05:40:07;15.60;99.90
57753;DHT22;43583;53.132;6.574;2022-07-29T05:42:33;15.60;99.90
57753;DHT22;43583;53.132;6.574;2022-07-29T05:44:59;15.60;99.90
57753;DHT22;43583;53.132;6.574;2022-07-29T05:47:25;15.70;99.90
57753;DHT22;43583;53.132;6.574;2022-07-29T05:49:50;15.70;99.90
57753;DHT22;43583;53.132;6.574;2022-07-29T05:52:16;15.80;99.90
57753;DHT22;43583;53.132;6.574;2022-07-29T05:54:42;15.90;99.90
57753;DHT22;43583;53.132;6.574;2022-07-29T05:57:12;15.90;99.90
57753;DHT22;43583;53.132;6.574;2022-07-29T05:59:40;16.00;99.90
57753;DHT22;43583;53.132;6.574;2022-07-29T06:02:05;16.10;99.90
57753;DHT22;43583;53.132;6.574;2022-07-29T06:04:32;16.20;99.90
57753;DHT22;43583;53.132;6.574;2022-07-29T06:06:57;16.30;99.90
57753;DHT22;43583;53.132;6.574;2022-07-29T06:09:23;16.40;99.90
57753;DHT22;43583;53.132;6.574;2022-07-29T06:11:49;16.50;99.90
57753;DHT22;43583;53.132;6.574;2022-07-29T06:14:14;16.60;99.90
57753;DHT22;43583;53.132;6.574;2022-07-29T06:16:40;16.70;99.90
57753;DHT22;43583;53.132;6.574;2022-07-29T06:19:06;16.90;99.90
57753;DHT22;43583;53.132;6.574;2022-07-29T06:21:32;17.10;99.90
57753;DHT22;43583;53.132;6.574;2022-07-29T06:23:57;17.30;99.90
57753;DHT22;43583;53.132;6.574;2022-07-29T06:26:24;17.40;99.90
57753;DHT22;43583;53.132;6.574;2022-07-29T06:28:50;17.60;99.90
57753;DHT22;43583;53.132;6.574;2022-07-29T06:31:16;17.60;99.90
57753;DHT22;43583;53.132;6.574;2022-07-29T06:33:41;17.50;99.90
57753;DHT22;43583;53.132;6.574;2022-07-29T06:36:07;17.50;99.90
57753;DHT22;43583;53.132;6.574;2022-07-29T06:38:33;17.60;99.90
57753;DHT22;43583;53.132;6.574;2022-07-29T06:40:59;17.60;99.90
57753;DHT22;43583;53.132;6.574;2022-07-29T06:43:32;17.80;99.90
57753;DHT22;43583;53.132;6.574;2022-07-29T06:46:06;18.10;99.90
57753;DHT22;43583;53.132;6.574;2022-07-29T06:48:34;18.50;99.90
57753;DHT22;43583;53.132;6.574;2022-07-29T06:51:00;19.00;99.90
57753;DHT22;43583;53.132;6.574;2022-07-29T06:53:27;19.30;99.90
57753;DHT22;43583;53.132;6.574;2022-07-29T06:55:52;19.20;99.90
57753;DHT22;43583;53.132;6.574;2022-07-29T06:58:18;19.10;99.90
57753;DHT22;43583;53.132;6.574;2022-07-29T07:00:46;19.00;99.90
57753;DHT22;43583;53.132;6.574;2022-07-29T07:03:12;18.90;99.90
57753;DHT22;43583;53.132;6.574;2022-07-29T07:05:38;18.90;99.90
57753;DHT22;43583;53.132;6.574;2022-07-29T07:08:04;18.80;99.90
57753;DHT22;43583;53.132;6.574;2022-07-29T07:10:30;18.70;99.90
57753;DHT22;43583;53.132;6.574;2022-07-29T07:12:55;18.70;99.90
57753;DHT22;43583;53.132;6.574;2022-07-29T07:15:21;18.60;99.90
57753;DHT22;43583;53.132;6.574;2022-07-29T07:17:48;18.60;99.90
57753;DHT22;43583;53.132;6.574;2022-07-29T07:20:14;18.70;99.90
57753;DHT22;43583;53.132;6.574;2022-07-29T07:22:40;18.80;99.90
57753;DHT22;43583;53.132;6.574;2022-07-29T07:25:06;18.80;99.90
57753;DHT22;43583;53.132;6.574;2022-07-29T07:27:32;18.90;99.90
57753;DHT22;43583;53.132;6.574;2022-07-29T07:29:57;18.90;99.90
57753;DHT22;43583;53.132;6.574;2022-07-29T07:32:23;18.90;99.90
57753;DHT22;43583;53.132;6.574;2022-07-29T07:34:48;18.90;99.90
57753;DHT22;43583;53.132;6.574;2022-07-29T07:37:14;18.80;99.90
57753;DHT22;43583;53.132;6.574;2022-07-29T07:39:40;18.70;99.90
57753;DHT22;43583;53.132;6.574;2022-07-29T07:42:06;18.70;99.90
57753;DHT22;43583;53.132;6.574;2022-07-29T07:44:32;18.80;99.90
57753;DHT22;43583;53.132;6.574;2022-07-29T07:46:57;18.80;99.90
57753;DHT22;43583;53.132;6.574;2022-07-29T07:49:23;18.70;99.90
57753;DHT22;43583;53.132;6.574;2022-07-29T07:51:49;18.70;99.90
57753;DHT22;43583;53.132;6.574;2022-07-29T07:54:14;18.70;99.90
57753;DHT22;43583;53.132;6.574;2022-07-29T07:56:40;18.60;99.90
57753;DHT22;43583;53.132;6.574;2022-07-29T07:59:05;18.60;99.90
57753;DHT22;43583;53.132;6.574;2022-07-29T08:01:31;18.60;99.90
57753;DHT22;43583;53.132;6.574;2022-07-29T08:03:57;18.70;99.90
57753;DHT22;43583;53.132;6.574;2022-07-29T08:06:22;18.70;99.90
57753;DHT22;43583;53.132;6.574;2022-07-29T08:08:50;18.80;99.90
57753;DHT22;43583;53.132;6.574;2022-07-29T08:11:16;19.00;99.90
57753;DHT22;43583;53.132;6.574;2022-07-29T08:13:42;19.10;99.90
57753;DHT22;43583;53.132;6.574;2022-07-29T08:16:08;19.20;99.90
57753;DHT22;43583;53.132;6.574;2022-07-29T08:18:39;19.40;99.90
57753;DHT22;43583;53.132;6.574;2022-07-29T08:21:05;19.40;99.90
57753;DHT22;43583;53.132;6.574;2022-07-29T08:23:30;19.50;99.90
57753;DHT22;43583;53.132;6.574;2022-07-29T08:26:10;19.50;99.90
57753;DHT22;43583;53.132;6.574;2022-07-29T08:28:41;19.50;99.90
57753;DHT22;43583;53.132;6.574;2022-07-29T08:31:09;19.60;99.90
57753;DHT22;43583;53.132;6.574;2022-07-29T08:33:35;19.70;99.90
57753;DHT22;43583;53.132;6.574;2022-07-29T08:36:01;19.80;99.90
57753;DHT22;43583;53.132;6.574;2022-07-29T08:38:26;19.80;99.90
57753;DHT22;43583;53.132;6.574;2022-07-29T08:40:53;19.80;99.90
57753;DHT22;43583;53.132;6.574;2022-07-29T08:43:19;19.80;99.90
57753;DHT22;43583;53.132;6.574;2022-07-29T08:45:46;19.80;99.90
57753;DHT22;43583;53.132;6.574;2022-07-29T08:48:18;19.90;99.90
57753;DHT22;43583;53.132;6.574;2022-07-29T08:50:44;19.90;99.90
57753;DHT22;43583;53.132;6.574;2022-07-29T08:53:12;20.00;99.90
57753;DHT22;43583;53.132;6.574;2022-07-29T08:55:43;20.10;99.90
57753;DHT22;43583;53.132;6.574;2022-07-29T08:58:09;20.10;99.90
57753;DHT22;43583;53.132;6.574;2022-07-29T09:00:46;20.10;99.90
57753;DHT22;43583;53.132;6.574;2022-07-29T09:03:15;20.10;99.90
57753;DHT22;43583;53.132;6.574;2022-07-29T09:05:42;20.10;99.90
57753;DHT22;43583;53.132;6.574;2022-07-29T09:08:08;20.30;99.90
57753;DHT22;43583;53.132;6.574;2022-07-29T09:10:37;20.40;99.90
57753;DHT22;43583;53.132;6.574;2022-07-29T09:13:03;20.50;99.90
57753;DHT22;43583;53.132;6.574;2022-07-29T09:15:28;20.50;99.90
57753;DHT22;43583;53.132;6.574;2022-07-29T09:17:54;20.50;99.90
57753;DHT22;43583;53.132;6.574;2022-07-29T09:20:22;20.40;99.90
57753;DHT22;43583;53.132;6.574;2022-07-29T09:22:49;20.30;99.90
57753;DHT22;43583;53.132;6.574;2022-07-29T09:25:34;20.20;99.90
57753;DHT22;43583;53.132;6.574;2022-07-29T09:28:07;20.10;99.90
57753;DHT22;43583;53.132;6.574;2022-07-29T09:30:33;20.10;99.90
57753;DHT22;43583;53.132;6.574;2022-07-29T09:33:01;20.00;99.90
57753;DHT22;43583;53.132;6.574;2022-07-29T09:35:27;20.00;99.90
57753;DHT22;43583;53.132;6.574;2022-07-29T09:37:53;20.00;99.90
57753;DHT22;43583;53.132;6.574;2022-07-29T09:40:24;20.00;99.90
57753;DHT22;43583;53.132;6.574;2022-07-29T09:42:51;20.00;99.90
57753;DHT22;43583;53.132;6.574;2022-07-29T09:45:31;20.00;99.90
57753;DHT22;43583;53.132;6.574;2022-07-29T09:47:57;20.10;99.90
57753;DHT22;43583;53.132;6.574;2022-07-29T09:50:39;20.20;99.90
57753;DHT22;43583;53.132;6.574;2022-07-29T09:53:05;20.40;99.90
57753;DHT22;43583;53.132;6.574;2022-07-29T09:55:31;20.50;99.90
57753;DHT22;43583;53.132;6.574;2022-07-29T09:58:18;20.50;99.90
57753;DHT22;43583;53.132;6.574;2022-07-29T10:00:45;20.50;99.90
57753;DHT22;43583;53.132;6.574;2022-07-29T10:03:12;20.60;99.90
57753;DHT22;43583;53.132;6.574;2022-07-29T10:05:37;20.50;99.90
57753;DHT22;43583;53.132;6.574;2022-07-29T10:08:04;20.50;99.90
57753;DHT22;43583;53.132;6.574;2022-07-29T10:10:31;20.50;99.90
57753;DHT22;43583;53.132;6.574;2022-07-29T10:12:58;20.20;99.90
57753;DHT22;43583;53.132;6.574;2022-07-29T10:15:26;20.20;99.90
57753;DHT22;43583;53.132;6.574;2022-07-29T10:17:54;20.20;99.90
57753;DHT22;43583;53.132;6.574;2022-07-29T10:20:21;20.30;99.90
57753;DHT22;43583;53.132;6.574;2022-07-29T10:22:48;20.30;99.90
57753;DHT22;43583;53.132;6.574;2022-07-29T10:25:15;20.30;99.90
57753;DHT22;43583;53.132;6.574;2022-07-29T10:27:41;20.20;99.90
57753;DHT22;43583;53.132;6.574;2022-07-29T10:30:08;20.30;99.90
57753;DHT22;43583;53.132;6.574;2022-07-29T10:32:51;20.30;99.90
57753;DHT22;43583;53.132;6.574;2022-07-29T10:35:29;20.40;99.90
57753;DHT22;43583;53.132;6.574;2022-07-29T10:38:21;20.50;99.90
57753;DHT22;43583;53.132;6.574;2022-07-29T10:40:59;20.60;99.90
57753;DHT22;43583;53.132;6.574;2022-07-29T10:43:47;20.70;99.90
57753;DHT22;43583;53.132;6.574;2022-07-29T10:46:14;20.70;99.90
57753;DHT22;43583;53.132;6.574;2022-07-29T10:54:16;20.90;99.90
57753;DHT22;43583;53.132;6.574;2022-07-29T10:56:42;20.80;99.90
57753;DHT22;43583;53.132;6.574;2022-07-29T11:01:50;20.70;99.90
57753;DHT22;43583;53.132;6.574;2022-07-29T11:04:39;20.70;99.90
57753;DHT22;43583;53.132;6.574;2022-07-29T11:09:30;20.90;99.90
57753;DHT22;43583;53.132;6.574;2022-07-29T11:11:57;20.90;99.90
57753;DHT22;43583;53.132;6.574;2022-07-29T11:15:00;21.10;99.90
57753;DHT22;43583;53.132;6.574;2022-07-29T11:17:27;21.10;99.90
57753;DHT22;43583;53.132;6.574;2022-07-29T11:22:57;21.40;99.90
57753;DHT22;43583;53.132;6.574;2022-07-29T11:25:23;21.50;99.90
57753;DHT22;43583;53.132;6.574;2022-07-29T11:27:49;21.70;99.90
57753;DHT22;43583;53.132;6.574;2022-07-29T11:30:14;22.10;99.90
57753;DHT22;43583;53.132;6.574;2022-07-29T11:32:42;22.50;99.80
57753;DHT22;43583;53.132;6.574;2022-07-29T11:35:34;22.90;97.60
57753;DHT22;43583;53.132;6.574;2022-07-29T11:41:20;23.60;95.60
57753;DHT22;43583;53.132;6.574;2022-07-29T11:43:48;23.60;94.70
57753;DHT22;43583;53.132;6.574;2022-07-29T11:46:14;23.50;95.10
57753;DHT22;43583;53.132;6.574;2022-07-29T11:48:44;23.50;95.00
57753;DHT22;43583;53.132;6.574;2022-07-29T11:51:10;23.50;94.90
57753;DHT22;43583;53.132;6.574;2022-07-29T11:53:39;23.50;94.80
57753;DHT22;43583;53.132;6.574;2022-07-29T11:56:08;23.50;95.00
57753;DHT22;43583;53.132;6.574;2022-07-29T11:58:34;23.60;93.90
57753;DHT22;43583;53.132;6.574;2022-07-29T12:01:00;23.50;94.10
57753;DHT22;43583;53.132;6.574;2022-07-29T12:03:28;23.50;93.60
57753;DHT22;43583;53.132;6.574;2022-07-29T12:05:54;23.50;94.00
57753;DHT22;43583;53.132;6.574;2022-07-29T12:08:23;23.50;93.00
57753;DHT22;43583;53.132;6.574;2022-07-29T12:10:51;23.60;93.20
57753;DHT22;43583;53.132;6.574;2022-07-29T12:13:19;23.80;92.40
57753;DHT22;43583;53.132;6.574;2022-07-29T12:15:53;23.90;92.00
57753;DHT22;43583;53.132;6.574;2022-07-29T12:18:19;23.80;89.10
57753;DHT22;43583;53.132;6.574;2022-07-29T12:20:47;23.70;90.00
57753;DHT22;43583;53.132;6.574;2022-07-29T12:23:13;23.80;91.40
57753;DHT22;43583;53.132;6.574;2022-07-29T12:25:40;23.70;90.00
57753;DHT22;43583;53.132;6.574;2022-07-29T12:28:09;23.80;89.80
57753;DHT22;43583;53.132;6.574;2022-07-29T12:33:28;23.70;88.90
57753;DHT22;43583;53.132;6.574;2022-07-29T12:35:57;23.70;85.60
57753;DHT22;43583;53.132;6.574;2022-07-29T12:38:24;23.80;88.30
57753;DHT22;43583;53.132;6.574;2022-07-29T12:40:52;23.70;88.40
57753;DHT22;43583;53.132;6.574;2022-07-29T12:43:22;23.80;87.60
57753;DHT22;43583;53.132;6.574;2022-07-29T12:45:53;23.80;87.40
57753;DHT22;43583;53.132;6.574;2022-07-29T12:48:36;24.00;85.00
57753;DHT22;43583;53.132;6.574;2022-07-29T12:51:03;24.10;84.80
57753;DHT22;43583;53.132;6.574;2022-07-29T12:53:29;24.10;83.50
57753;DHT22;43583;53.132;6.574;2022-07-29T12:55:57;24.30;84.80
57753;DHT22;43583;53.132;6.574;2022-07-29T13:01:05;25.00;84.30
57753;DHT22;43583;53.132;6.574;2022-07-29T13:03:54;25.20;83.30
57753;DHT22;43583;53.132;6.574;2022-07-29T13:06:41;25.30;81.50
57753;DHT22;43583;53.132;6.574;2022-07-29T13:09:13;25.40;81.90
57753;DHT22;43583;53.132;6.574;2022-07-29T13:11:47;25.20;80.70
57753;DHT22;43583;53.132;6.574;2022-07-29T13:14:29;25.20;80.70
57753;DHT22;43583;53.132;6.574;2022-07-29T13:22:10;25.10;79.40
57753;DHT22;43583;53.132;6.574;2022-07-29T13:24:54;25.00;79.60
57753;DHT22;43583;53.132;6.574;2022-07-29T13:27:30;25.00;77.60
57753;DHT22;43583;53.132;6.574;2022-07-29T13:29:58;25.00;77.90
57753;DHT22;43583;53.132;6.574;2022-07-29T13:32:26;25.00;77.00
57753;DHT22;43583;53.132;6.574;2022-07-29T13:34:52;25.00;78.20
57753;DHT22;43583;53.132;6.574;2022-07-29T13:37:19;25.00;78.10
57753;DHT22;43583;53.132;6.574;2022-07-29T13:39:44;25.00;78.40
57753;DHT22;43583;53.132;6.574;2022-07-29T13:42:10;24.90;78.30
57753;DHT22;43583;53.132;6.574;2022-07-29T13:44:38;25.00;77.20
57753;DHT22;43583;53.132;6.574;2022-07-29T13:47:05;25.00;78.20
57753;DHT22;43583;53.132;6.574;2022-07-29T13:49:31;25.10;78.00
57753;DHT22;43583;53.132;6.574;2022-07-29T13:51:56;25.20;78.20
57753;DHT22;43583;53.132;6.574;2022-07-29T13:54:22;25.30;76.60
57753;DHT22;43583;53.132;6.574;2022-07-29T13:56:47;25.40;78.10
57753;DHT22;43583;53.132;6.574;2022-07-29T13:59:13;25.40;75.50
57753;DHT22;43583;53.132;6.574;2022-07-29T14:01:39;25.60;74.80
57753;DHT22;43583;53.132;6.574;2022-07-29T14:04:07;25.50;74.10
57753;DHT22;43583;53.132;6.574;2022-07-29T14:06:33;25.50;73.00
57753;DHT22;43583;53.132;6.574;2022-07-29T14:08:59;25.50;70.30
57753;DHT22;43583;53.132;6.574;2022-07-29T14:11:24;25.40;71.30
57753;DHT22;43583;53.132;6.574;2022-07-29T14:13:50;25.50;70.10
57753;DHT22;43583;53.132;6.574;2022-07-29T14:16:15;25.50;69.90
57753;DHT22;43583;53.132;6.574;2022-07-29T14:18:41;25.60;68.70
57753;DHT22;43583;53.132;6.574;2022-07-29T14:21:07;25.60;68.70
57753;DHT22;43583;53.132;6.574;2022-07-29T14:23:32;25.60;67.70
57753;DHT22;43583;53.132;6.574;2022-07-29T14:25:58;25.60;68.80
57753;DHT22;43583;53.132;6.574;2022-07-29T14:28:23;25.60;67.70
57753;DHT22;43583;53.132;6.574;2022-07-29T14:30:49;25.60;66.60
57753;DHT22;43583;53.132;6.574;2022-07-29T14:33:14;25.60;67.00
57753;DHT22;43583;53.132;6.574;2022-07-29T14:35:40;25.60;66.30
57753;DHT22;43583;53.132;6.574;2022-07-29T14:38:05;25.50;66.10
57753;DHT22;43583;53.132;6.574;2022-07-29T14:40:31;25.30;66.80
57753;DHT22;43583;53.132;6.574;2022-07-29T14:42:57;25.10;68.50
57753;DHT22;43583;53.132;6.574;2022-07-29T14:45:22;25.00;68.90
57753;DHT22;43583;53.132;6.574;2022-07-29T14:47:48;24.80;68.80
57753;DHT22;43583;53.132;6.574;2022-07-29T14:50:15;24.50;69.40
57753;DHT22;43583;53.132;6.574;2022-07-29T14:52:41;24.30;70.10
57753;DHT22;43583;53.132;6.574;2022-07-29T14:55:07;24.30;71.00
57753;DHT22;43583;53.132;6.574;2022-07-29T14:57:33;24.50;70.60
57753;DHT22;43583;53.132;6.574;2022-07-29T14:59:58;24.60;70.70
57753;DHT22;43583;53.132;6.574;2022-07-29T15:02:24;24.70;70.20
57753;DHT22;43583;53.132;6.574;2022-07-29T15:04:49;24.80;69.40
57753;DHT22;43583;53.132;6.574;2022-07-29T15:07:15;24.80;69.70
57753;DHT22;43583;53.132;6.574;2022-07-29T15:09:42;24.80;69.20
57753;DHT22;43583;53.132;6.574;2022-07-29T15:12:07;24.80;70.20
57753;DHT22;43583;53.132;6.574;2022-07-29T15:14:33;24.70;69.10
57753;DHT22;43583;53.132;6.574;2022-07-29T15:16:59;24.70;68.50
57753;DHT22;43583;53.132;6.574;2022-07-29T15:19:25;24.70;69.50
57753;DHT22;43583;53.132;6.574;2022-07-29T15:21:50;24.70;68.30
57753;DHT22;43583;53.132;6.574;2022-07-29T15:24:16;24.70;69.10
57753;DHT22;43583;53.132;6.574;2022-07-29T15:26:42;24.70;68.70
57753;DHT22;43583;53.132;6.574;2022-07-29T15:29:08;24.70;67.40
57753;DHT22;43583;53.132;6.574;2022-07-29T15:31:34;24.60;67.80
57753;DHT22;43583;53.132;6.574;2022-07-29T15:33:59;24.60;66.80
57753;DHT22;43583;53.132;6.574;2022-07-29T15:36:25;24.60;67.30
57753;DHT22;43583;53.132;6.574;2022-07-29T15:38:52;24.60;68.10
57753;DHT22;43583;53.132;6.574;2022-07-29T15:41:19;24.60;68.70
57753;DHT22;43583;53.132;6.574;2022-07-29T15:43:45;24.60;68.70
57753;DHT22;43583;53.132;6.574;2022-07-29T15:46:14;24.60;69.30
57753;DHT22;43583;53.132;6.574;2022-07-29T15:48:58;24.60;68.80
57753;DHT22;43583;53.132;6.574;2022-07-29T15:51:23;24.60;67.50
57753;DHT22;43583;53.132;6.574;2022-07-29T15:53:49;24.50;65.80
57753;DHT22;43583;53.132;6.574;2022-07-29T15:56:15;24.50;66.00
57753;DHT22;43583;53.132;6.574;2022-07-29T15:58:40;24.50;66.20
57753;DHT22;43583;53.132;6.574;2022-07-29T16:01:06;24.50;67.20
57753;DHT22;43583;53.132;6.574;2022-07-29T16:03:31;24.60;70.00
57753;DHT22;43583;53.132;6.574;2022-07-29T16:05:57;24.50;68.00
57753;DHT22;43583;53.132;6.574;2022-07-29T16:08:23;24.50;68.70
57753;DHT22;43583;53.132;6.574;2022-07-29T16:10:48;24.50;70.30
57753;DHT22;43583;53.132;6.574;2022-07-29T16:13:14;24.60;70.40